sensor_id;sensor_type;location;lat;lon;timestamp;P1;durP1;ratioP1;P2;durP2;ratioP2
5555;SDS011;2801;50.972;7.856;2023-02-15T00:02:01;36.47;;;14.60;;
5555;SDS011;2801;50.972;7.856;2023-02-15T00:04:28;37.70;;;15.37;;
5555;SDS011;2801;50.972;7.856;2023-02-15T00:07:14;29.57;;;15.30;;
5555;SDS011;2801;50.972;7.856;2023-02-15T00:09:44;28.50;;;12.77;;
5555;SDS011;2801;50.972;7.856;2023-02-15T00:12:12;32.77;;;13.57;;
5555;SDS011;2801;50.972;7.856;2023-02-15T00:14:40;30.70;;;14.90;;
5555;SDS011;2801;50.972;7.856;2023-02-15T00:17:08;34.27;;;15.83;;
5555;SDS011;2801;50.972;7.856;2023-02-15T00:19:34;29.43;;;14.13;;
5555;SDS011;2801;50.972;7.856;2023-02-15T00:22:01;33.77;;;15.27;;
5555;SDS011;2801;50.972;7.856;2023-02-15T00:24:28;33.63;;;15.47;;
5555;SDS011;2801;50.972;7.856;2023-02-15T00:26:55;32.30;;;15.50;;
5555;SDS011;2801;50.972;7.856;2023-02-15T00:29:22;35.10;;;15.30;;
5555;SDS011;2801;50.972;7.856;2023-02-15T00:31:49;31.90;;;13.57;;
5555;SDS011;2801;50.972;7.856;2023-02-15T00:34:19;32.67;;;15.03;;
5555;SDS011;2801;50.972;7.856;2023-02-15T00:36:49;31.63;;;15.73;;
5555;SDS011;2801;50.972;7.856;2023-02-15T00:39:16;31.97;;;14.90;;
5555;SDS011;2801;50.972;7.856;2023-02-15T00:41:45;33.87;;;14.13;;
5555;SDS011;2801;50.972;7.856;2023-02-15T00:44:13;31.33;;;15.23;;
5555;SDS011;2801;50.972;7.856;2023-02-15T00:46:41;30.17;;;13.80;;
5555;SDS011;2801;50.972;7.856;2023-02-15T00:49:08;30.60;;;13.83;;
5555;SDS011;2801;50.972;7.856;2023-02-15T00:51:36;29.93;;;14.47;;
5555;SDS011;2801;50.972;7.856;2023-02-15T00:54:04;35.10;;;15.37;;
5555;SDS011;2801;50.972;7.856;2023-02-15T00:56:31;38.83;;;15.57;;
5555;SDS011;2801;50.972;7.856;2023-02-15T00:58:58;33.90;;;15.23;;
5555;SDS011;2801;50.972;7.856;2023-02-15T01:01:25;37.17;;;14.90;;
5555;SDS011;2801;50.972;7.856;2023-02-15T01:03:52;34.10;;;15.57;;
5555;SDS011;2801;50.972;7.856;2023-02-15T01:06:19;33.03;;;13.87;;
5555;SDS011;2801;50.972;7.856;2023-02-15T01:08:46;35.83;;;16.00;;
5555;SDS011;2801;50.972;7.856;2023-02-15T01:11:15;32.20;;;14.63;;
5555;SDS011;2801;50.972;7.856;2023-02-15T01:13:49;30.20;;;14.40;;
5555;SDS011;2801;50.972;7.856;2023-02-15T01:16:19;39.10;;;15.03;;
5555;SDS011;2801;50.972;7.856;2023-02-15T01:18:47;33.63;;;15.43;;
5555;SDS011;2801;50.972;7.856;2023-02-15T01:21:18;33.97;;;14.63;;
5555;SDS011;2801;50.972;7.856;2023-02-15T01:23:48;31.93;;;15.07;;
5555;SDS011;2801;50.972;7.856;2023-02-15T01:26:16;32.77;;;15.90;;
5555;SDS011;2801;50.972;7.856;2023-02-15T01:28:43;33.10;;;15.43;;
5555;SDS011;2801;50.972;7.856;2023-02-15T01:31:12;35.13;;;15.40;;
5555;SDS011;2801;50.972;7.856;2023-02-15T01:33:43;32.77;;;15.40;;
5555;SDS011;2801;50.972;7.856;2023-02-15T01:36:10;39.00;;;16.07;;
5555;SDS011;2801;50.972;7.856;2023-02-15T01:38:37;33.80;;;15.80;;
5555;SDS011;2801;50.972;7.856;2023-02-15T01:41:06;35.70;;;15.93;;
5555;SDS011;2801;50.972;7.856;2023-02-15T01:43:57;32.57;;;14.90;;
5555;SDS011;2801;50.972;7.856;2023-02-15T01:46:28;32.57;;;15.23;;
5555;SDS011;2801;50.972;7.856;2023-02-15T01:49:13;29.17;;;14.53;;
5555;SDS011;2801;50.972;7.856;2023-02-15T01:51:46;31.23;;;14.47;;
5555;SDS011;2801;50.972;7.856;2023-02-15T01:54:21;31.97;;;14.83;;
5555;SDS011;2801;50.972;7.856;2023-02-15T01:57:00;33.20;;;15.37;;
5555;SDS011;2801;50.972;7.856;2023-02-15T01:59:37;32.40;;;14.70;;
5555;SDS011;2801;50.972;7.856;2023-02-15T02:02:12;29.60;;;14.43;;
5555;SDS011;2801;50.972;7.856;2023-02-15T02:04:45;36.53;;;15.50;;
5555;SDS011;2801;50.972;7.856;2023-02-15T02:07:24;33.60;;;16.10;;
5555;SDS011;2801;50.972;7.856;2023-02-15T02:09:55;32.97;;;15.40;;
5555;SDS011;2801;50.972;7.856;2023-02-15T02:12:22;36.27;;;16.20;;
5555;SDS011;2801;50.972;7.856;2023-02-15T02:14:50;36.80;;;15.80;;
5555;SDS011;2801;50.972;7.856;2023-02-15T02:17:25;33.80;;;14.70;;
5555;SDS011;2801;50.972;7.856;2023-02-15T02:36:15;30.13;;;13.93;;
5555;SDS011;2801;50.972;7.856;2023-02-15T02:44:47;30.53;;;14.37;;
5555;SDS011;2801;50.972;7.856;2023-02-15T02:47:32;26.13;;;12.53;;
5555;SDS011;2801;50.972;7.856;2023-02-15T02:50:21;27.67;;;13.40;;
5555;SDS011;2801;50.972;7.856;2023-02-15T02:52:52;34.27;;;14.50;;
5555;SDS011;2801;50.972;7.856;2023-02-15T02:58:01;35.43;;;14.33;;
5555;SDS011;2801;50.972;7.856;2023-02-15T03:00:34;34.33;;;14.20;;
5555;SDS011;2801;50.972;7.856;2023-02-15T03:03:15;26.17;;;12.83;;
5555;SDS011;2801;50.972;7.856;2023-02-15T03:05:59;26.17;;;12.47;;
5555;SDS011;2801;50.972;7.856;2023-02-15T03:08:41;28.57;;;13.47;;
5555;SDS011;2801;50.972;7.856;2023-02-15T03:11:13;28.43;;;13.30;;
5555;SDS011;2801;50.972;7.856;2023-02-15T03:13:40;30.57;;;13.63;;
5555;SDS011;2801;50.972;7.856;2023-02-15T03:16:10;31.93;;;13.73;;
5555;SDS011;2801;50.972;7.856;2023-02-15T03:19:06;27.83;;;12.67;;
5555;SDS011;2801;50.972;7.856;2023-02-15T03:21:44;26.27;;;12.90;;
5555;SDS011;2801;50.972;7.856;2023-02-15T03:27:20;26.77;;;13.13;;
5555;SDS011;2801;50.972;7.856;2023-02-15T03:29:53;25.93;;;12.63;;
5555;SDS011;2801;50.972;7.856;2023-02-15T03:32:25;28.27;;;13.53;;
5555;SDS011;2801;50.972;7.856;2023-02-15T03:34:58;30.00;;;13.20;;
5555;SDS011;2801;50.972;7.856;2023-02-15T03:40:03;28.13;;;12.40;;
5555;SDS011;2801;50.972;7.856;2023-02-15T03:43:01;25.63;;;13.17;;
5555;SDS011;2801;50.972;7.856;2023-02-15T03:46:29;29.73;;;12.97;;
5555;SDS011;2801;50.972;7.856;2023-02-15T03:49:09;29.83;;;13.10;;
5555;SDS011;2801;50.972;7.856;2023-02-15T03:51:44;24.80;;;12.53;;
5555;SDS011;2801;50.972;7.856;2023-02-15T03:54:15;27.83;;;13.30;;
5555;SDS011;2801;50.972;7.856;2023-02-15T03:57:11;30.00;;;12.50;;
5555;SDS011;2801;50.972;7.856;2023-02-15T04:00:15;28.03;;;12.93;;
5555;SDS011;2801;50.972;7.856;2023-02-15T04:05:44;32.67;;;13.73;;
5555;SDS011;2801;50.972;7.856;2023-02-15T04:08:12;26.30;;;12.90;;
5555;SDS011;2801;50.972;7.856;2023-02-15T04:10:39;30.73;;;13.30;;
5555;SDS011;2801;50.972;7.856;2023-02-15T04:13:19;24.50;;;12.43;;
5555;SDS011;2801;50.972;7.856;2023-02-15T04:15:47;25.73;;;11.53;;
5555;SDS011;2801;50.972;7.856;2023-02-15T04:18:33;29.40;;;12.73;;
5555;SDS011;2801;50.972;7.856;2023-02-15T04:21:25;25.20;;;11.87;;
5555;SDS011;2801;50.972;7.856;2023-02-15T04:24:13;25.33;;;12.33;;
5555;SDS011;2801;50.972;7.856;2023-02-15T04:26:59;24.57;;;12.00;;
5555;SDS011;2801;50.972;7.856;2023-02-15T04:29:27;27.30;;;12.47;;
5555;SDS011;2801;50.972;7.856;2023-02-15T04:31:56;24.83;;;12.27;;
5555;SDS011;2801;50.972;7.856;2023-02-15T04:34:25;23.80;;;12.13;;
5555;SDS011;2801;50.972;7.856;2023-02-15T04:36:52;23.70;;;11.37;;
5555;SDS011;2801;50.972;7.856;2023-02-15T04:39:19;24.73;;;12.07;;
5555;SDS011;2801;50.972;7.856;2023-02-15T04:41:46;23.47;;;11.33;;
5555;SDS011;2801;50.972;7.856;2023-02-15T04:44:14;26.23;;;11.27;;
5555;SDS011;2801;50.972;7.856;2023-02-15T04:46:41;25.40;;;11.73;;
5555;SDS011;2801;50.972;7.856;2023-02-15T04:49:08;22.50;;;11.57;;
5555;SDS011;2801;50.972;7.856;2023-02-15T04:51:35;23.97;;;11.43;;
5555;SDS011;2801;50.972;7.856;2023-02-15T04:54:02;25.47;;;11.10;;
5555;SDS011;2801;50.972;7.856;2023-02-15T04:56:29;24.23;;;10.90;;
5555;SDS011;2801;50.972;7.856;2023-02-15T04:58:57;23.40;;;10.60;;
5555;SDS011;2801;50.972;7.856;2023-02-15T05:01:24;26.57;;;11.33;;
5555;SDS011;2801;50.972;7.856;2023-02-15T05:03:51;23.10;;;10.67;;
5555;SDS011;2801;50.972;7.856;2023-02-15T05:06:18;21.70;;;10.77;;
5555;SDS011;2801;50.972;7.856;2023-02-15T05:08:45;29.43;;;12.67;;
5555;SDS011;2801;50.972;7.856;2023-02-15T05:11:11;26.03;;;11.63;;
5555;SDS011;2801;50.972;7.856;2023-02-15T05:13:38;21.47;;;10.63;;
5555;SDS011;2801;50.972;7.856;2023-02-15T05:16:05;26.53;;;11.67;;
5555;SDS011;2801;50.972;7.856;2023-02-15T05:18:32;24.07;;;10.57;;
5555;SDS011;2801;50.972;7.856;2023-02-15T05:20:59;21.97;;;10.40;;
5555;SDS011;2801;50.972;7.856;2023-02-15T05:23:25;22.70;;;10.63;;
5555;SDS011;2801;50.972;7.856;2023-02-15T05:25:52;26.23;;;12.07;;
5555;SDS011;2801;50.972;7.856;2023-02-15T05:28:38;23.57;;;10.33;;
5555;SDS011;2801;50.972;7.856;2023-02-15T05:31:08;27.93;;;11.77;;
5555;SDS011;2801;50.972;7.856;2023-02-15T05:33:39;17.93;;;9.87;;
5555;SDS011;2801;50.972;7.856;2023-02-15T05:36:07;21.40;;;10.30;;
5555;SDS011;2801;50.972;7.856;2023-02-15T05:38:34;20.67;;;9.57;;
5555;SDS011;2801;50.972;7.856;2023-02-15T05:41:07;20.20;;;10.07;;
5555;SDS011;2801;50.972;7.856;2023-02-15T05:43:36;21.77;;;10.10;;
5555;SDS011;2801;50.972;7.856;2023-02-15T05:46:04;19.90;;;9.17;;
5555;SDS011;2801;50.972;7.856;2023-02-15T05:48:32;19.70;;;10.33;;
5555;SDS011;2801;50.972;7.856;2023-02-15T05:51:01;25.00;;;10.60;;
5555;SDS011;2801;50.972;7.856;2023-02-15T05:53:35;20.00;;;10.37;;
5555;SDS011;2801;50.972;7.856;2023-02-15T05:56:04;22.47;;;10.40;;
5555;SDS011;2801;50.972;7.856;2023-02-15T05:58:35;22.07;;;9.87;;
5555;SDS011;2801;50.972;7.856;2023-02-15T06:01:11;18.90;;;9.03;;
5555;SDS011;2801;50.972;7.856;2023-02-15T06:03:41;19.37;;;9.23;;
5555;SDS011;2801;50.972;7.856;2023-02-15T06:06:09;20.40;;;9.43;;
5555;SDS011;2801;50.972;7.856;2023-02-15T06:08:37;26.80;;;12.77;;
5555;SDS011;2801;50.972;7.856;2023-02-15T06:11:05;20.97;;;10.27;;
5555;SDS011;2801;50.972;7.856;2023-02-15T06:13:32;24.03;;;10.67;;
5555;SDS011;2801;50.972;7.856;2023-02-15T06:16:04;26.90;;;11.77;;
5555;SDS011;2801;50.972;7.856;2023-02-15T06:18:32;24.20;;;12.20;;
5555;SDS011;2801;50.972;7.856;2023-02-15T06:21:00;28.33;;;12.97;;
5555;SDS011;2801;50.972;7.856;2023-02-15T06:23:26;20.90;;;10.07;;
5555;SDS011;2801;50.972;7.856;2023-02-15T06:25:54;24.73;;;10.67;;
5555;SDS011;2801;50.972;7.856;2023-02-15T06:28:20;24.70;;;11.73;;
5555;SDS011;2801;50.972;7.856;2023-02-15T06:30:47;22.73;;;11.60;;
5555;SDS011;2801;50.972;7.856;2023-02-15T06:33:14;26.60;;;11.90;;
5555;SDS011;2801;50.972;7.856;2023-02-15T06:35:41;32.40;;;13.93;;
5555;SDS011;2801;50.972;7.856;2023-02-15T06:38:08;32.40;;;14.93;;
5555;SDS011;2801;50.972;7.856;2023-02-15T06:40:35;31.27;;;15.83;;
5555;SDS011;2801;50.972;7.856;2023-02-15T06:43:02;34.37;;;15.53;;
5555;SDS011;2801;50.972;7.856;2023-02-15T06:45:28;32.83;;;15.07;;
5555;SDS011;2801;50.972;7.856;2023-02-15T06:47:55;22.17;;;10.10;;
5555;SDS011;2801;50.972;7.856;2023-02-15T06:50:22;18.80;;;9.70;;
5555;SDS011;2801;50.972;7.856;2023-02-15T06:52:49;23.43;;;10.17;;
5555;SDS011;2801;50.972;7.856;2023-02-15T06:55:22;21.20;;;10.43;;
5555;SDS011;2801;50.972;7.856;2023-02-15T06:57:49;21.00;;;9.60;;
5555;SDS011;2801;50.972;7.856;2023-02-15T07:00:16;22.40;;;9.77;;
5555;SDS011;2801;50.972;7.856;2023-02-15T07:02:44;20.77;;;9.87;;
5555;SDS011;2801;50.972;7.856;2023-02-15T07:05:11;18.87;;;9.50;;
5555;SDS011;2801;50.972;7.856;2023-02-15T07:07:38;20.53;;;9.80;;
5555;SDS011;2801;50.972;7.856;2023-02-15T07:10:05;18.83;;;9.40;;
5555;SDS011;2801;50.972;7.856;2023-02-15T07:12:32;22.67;;;10.77;;
5555;SDS011;2801;50.972;7.856;2023-02-15T07:15:09;21.77;;;9.97;;
5555;SDS011;2801;50.972;7.856;2023-02-15T07:17:44;21.63;;;10.13;;
5555;SDS011;2801;50.972;7.856;2023-02-15T07:20:12;24.43;;;9.93;;
5555;SDS011;2801;50.972;7.856;2023-02-15T07:22:43;21.70;;;10.67;;
5555;SDS011;2801;50.972;7.856;2023-02-15T07:25:11;21.03;;;10.20;;
5555;SDS011;2801;50.972;7.856;2023-02-15T07:27:39;28.63;;;11.73;;
5555;SDS011;2801;50.972;7.856;2023-02-15T07:30:08;21.33;;;10.27;;
5555;SDS011;2801;50.972;7.856;2023-02-15T07:32:37;25.87;;;11.87;;
5555;SDS011;2801;50.972;7.856;2023-02-15T07:35:24;26.10;;;12.23;;
5555;SDS011;2801;50.972;7.856;2023-02-15T07:37:51;24.10;;;10.77;;
5555;SDS011;2801;50.972;7.856;2023-02-15T07:40:19;23.07;;;11.90;;
5555;SDS011;2801;50.972;7.856;2023-02-15T07:42:49;27.03;;;13.80;;
5555;SDS011;2801;50.972;7.856;2023-02-15T07:45:21;29.83;;;13.90;;
5555;SDS011;2801;50.972;7.856;2023-02-15T07:47:48;33.60;;;16.30;;
5555;SDS011;2801;50.972;7.856;2023-02-15T07:50:15;41.23;;;18.77;;
5555;SDS011;2801;50.972;7.856;2023-02-15T07:52:42;43.57;;;19.33;;
5555;SDS011;2801;50.972;7.856;2023-02-15T07:55:09;35.43;;;15.53;;
5555;SDS011;2801;50.972;7.856;2023-02-15T07:57:42;30.10;;;14.60;;
5555;SDS011;2801;50.972;7.856;2023-02-15T08:00:11;21.80;;;11.97;;
5555;SDS011;2801;50.972;7.856;2023-02-15T08:02:41;24.37;;;13.07;;
5555;SDS011;2801;50.972;7.856;2023-02-15T08:05:13;25.77;;;13.07;;
5555;SDS011;2801;50.972;7.856;2023-02-15T08:07:40;27.63;;;12.90;;
5555;SDS011;2801;50.972;7.856;2023-02-15T08:10:07;29.67;;;12.23;;
5555;SDS011;2801;50.972;7.856;2023-02-15T08:12:34;31.43;;;13.20;;
5555;SDS011;2801;50.972;7.856;2023-02-15T08:15:01;31.13;;;14.07;;
5555;SDS011;2801;50.972;7.856;2023-02-15T08:17:28;32.70;;;14.03;;
5555;SDS011;2801;50.972;7.856;2023-02-15T08:19:55;29.43;;;14.50;;
5555;SDS011;2801;50.972;7.856;2023-02-15T08:22:22;33.30;;;14.10;;
5555;SDS011;2801;50.972;7.856;2023-02-15T08:24:49;28.53;;;12.60;;
5555;SDS011;2801;50.972;7.856;2023-02-15T08:27:16;31.33;;;12.50;;
5555;SDS011;2801;50.972;7.856;2023-02-15T08:29:43;27.70;;;12.53;;
5555;SDS011;2801;50.972;7.856;2023-02-15T08:32:10;27.33;;;11.90;;
5555;SDS011;2801;50.972;7.856;2023-02-15T08:34:39;23.77;;;12.40;;
5555;SDS011;2801;50.972;7.856;2023-02-15T08:37:08;22.60;;;11.37;;
5555;SDS011;2801;50.972;7.856;2023-02-15T08:39:35;21.53;;;10.87;;
5555;SDS011;2801;50.972;7.856;2023-02-15T08:42:02;23.07;;;10.87;;
5555;SDS011;2801;50.972;7.856;2023-02-15T08:44:29;20.13;;;10.17;;
5555;SDS011;2801;50.972;7.856;2023-02-15T08:46:56;20.80;;;10.20;;
5555;SDS011;2801;50.972;7.856;2023-02-15T08:49:31;22.73;;;10.73;;
5555;SDS011;2801;50.972;7.856;2023-02-15T08:51:58;22.43;;;11.10;;
5555;SDS011;2801;50.972;7.856;2023-02-15T08:54:25;23.07;;;11.10;;
5555;SDS011;2801;50.972;7.856;2023-02-15T08:56:52;19.43;;;10.47;;
5555;SDS011;2801;50.972;7.856;2023-02-15T08:59:21;19.50;;;9.20;;
5555;SDS011;2801;50.972;7.856;2023-02-15T09:01:50;22.60;;;10.47;;
5555;SDS011;2801;50.972;7.856;2023-02-15T09:04:19;18.67;;;9.63;;
5555;SDS011;2801;50.972;7.856;2023-02-15T09:06:47;21.10;;;10.43;;
5555;SDS011;2801;50.972;7.856;2023-02-15T09:09:16;21.97;;;10.10;;
5555;SDS011;2801;50.972;7.856;2023-02-15T09:11:45;19.80;;;10.27;;
5555;SDS011;2801;50.972;7.856;2023-02-15T09:14:18;17.97;;;9.20;;
5555;SDS011;2801;50.972;7.856;2023-02-15T09:16:47;18.37;;;9.80;;
5555;SDS011;2801;50.972;7.856;2023-02-15T09:19:17;21.10;;;9.33;;
5555;SDS011;2801;50.972;7.856;2023-02-15T09:21:47;16.90;;;8.90;;
5555;SDS011;2801;50.972;7.856;2023-02-15T09:24:15;17.30;;;9.37;;
5555;SDS011;2801;50.972;7.856;2023-02-15T09:26:43;19.70;;;9.63;;
5555;SDS011;2801;50.972;7.856;2023-02-15T09:29:13;17.93;;;9.00;;
5555;SDS011;2801;50.972;7.856;2023-02-15T09:31:45;16.23;;;8.60;;
5555;SDS011;2801;50.972;7.856;2023-02-15T09:34:18;10.27;;;4.43;;
5555;SDS011;2801;50.972;7.856;2023-02-15T09:36:47;16.57;;;8.57;;
5555;SDS011;2801;50.972;7.856;2023-02-15T09:39:16;18.63;;;8.90;;
5555;SDS011;2801;50.972;7.856;2023-02-15T09:41:59;20.07;;;9.40;;
5555;SDS011;2801;50.972;7.856;2023-02-15T09:48:35;17.23;;;8.83;;
5555;SDS011;2801;50.972;7.856;2023-02-15T09:57:35;14.97;;;6.90;;
5555;SDS011;2801;50.972;7.856;2023-02-15T10:17:25;17.10;;;7.67;;
5555;SDS011;2801;50.972;7.856;2023-02-15T10:37:10;15.40;;;8.57;;
5555;SDS011;2801;50.972;7.856;2023-02-15T10:42:50;18.97;;;7.50;;
5555;SDS011;2801;50.972;7.856;2023-02-15T10:57:04;12.43;;;6.77;;
5555;SDS011;2801;50.972;7.856;2023-02-15T11:08:16;14.57;;;8.07;;
5555;SDS011;2801;50.972;7.856;2023-02-15T11:10:46;12.63;;;6.93;;
5555;SDS011;2801;50.972;7.856;2023-02-15T11:13:19;14.67;;;7.90;;
5555;SDS011;2801;50.972;7.856;2023-02-15T11:15:54;13.90;;;7.40;;
5555;SDS011;2801;50.972;7.856;2023-02-15T11:18:36;13.63;;;6.70;;
5555;SDS011;2801;50.972;7.856;2023-02-15T11:21:29;13.87;;;7.20;;
5555;SDS011;2801;50.972;7.856;2023-02-15T11:24:12;14.93;;;7.93;;
5555;SDS011;2801;50.972;7.856;2023-02-15T11:26:46;16.03;;;7.77;;
5555;SDS011;2801;50.972;7.856;2023-02-15T11:29:25;14.00;;;7.20;;
5555;SDS011;2801;50.972;7.856;2023-02-15T11:34:59;19.27;;;9.77;;
5555;SDS011;2801;50.972;7.856;2023-02-15T11:37:50;17.33;;;9.83;;
5555;SDS011;2801;50.972;7.856;2023-02-15T11:40:26;13.93;;;7.57;;
5555;SDS011;2801;50.972;7.856;2023-02-15T11:43:11;14.80;;;7.50;;
5555;SDS011;2801;50.972;7.856;2023-02-15T11:45:46;12.70;;;7.23;;
5555;SDS011;2801;50.972;7.856;2023-02-15T11:48:14;13.63;;;7.57;;
5555;SDS011;2801;50.972;7.856;2023-02-15T11:50:42;14.27;;;7.97;;
5555;SDS011;2801;50.972;7.856;2023-02-15T11:53:13;12.90;;;6.17;;
5555;SDS011;2801;50.972;7.856;2023-02-15T11:55:46;15.90;;;8.10;;
5555;SDS011;2801;50.972;7.856;2023-02-15T12:00:56;15.77;;;7.63;;
5555;SDS011;2801;50.972;7.856;2023-02-15T12:03:47;15.90;;;7.83;;
5555;SDS011;2801;50.972;7.856;2023-02-15T12:09:12;14.33;;;7.13;;
5555;SDS011;2801;50.972;7.856;2023-02-15T12:15:07;12.90;;;6.70;;
5555;SDS011;2801;50.972;7.856;2023-02-15T12:17:39;15.70;;;7.43;;
5555;SDS011;2801;50.972;7.856;2023-02-15T12:22:49;13.73;;;7.78;;
5555;SDS011;2801;50.972;7.856;2023-02-15T12:25:32;12.37;;;6.80;;
5555;SDS011;2801;50.972;7.856;2023-02-15T12:28:40;10.95;;;6.53;;
5555;SDS011;2801;50.972;7.856;2023-02-15T12:31:20;11.98;;;7.05;;
5555;SDS011;2801;50.972;7.856;2023-02-15T12:33:57;14.30;;;6.90;;
5555;SDS011;2801;50.972;7.856;2023-02-15T12:36:31;12.55;;;6.50;;
5555;SDS011;2801;50.972;7.856;2023-02-15T12:44:21;13.50;;;7.28;;
5555;SDS011;2801;50.972;7.856;2023-02-15T12:47:04;13.75;;;6.82;;
5555;SDS011;2801;50.972;7.856;2023-02-15T12:49:42;13.48;;;7.05;;
5555;SDS011;2801;50.972;7.856;2023-02-15T12:54:43;14.57;;;7.35;;
5555;SDS011;2801;50.972;7.856;2023-02-15T12:57:22;12.55;;;6.93;;
5555;SDS011;2801;50.972;7.856;2023-02-15T13:02:57;14.50;;;7.30;;
5555;SDS011;2801;50.972;7.856;2023-02-15T13:08:00;11.80;;;6.57;;
5555;SDS011;2801;50.972;7.856;2023-02-15T13:10:52;11.55;;;6.20;;
5555;SDS011;2801;50.972;7.856;2023-02-15T13:13:29;13.15;;;6.53;;
5555;SDS011;2801;50.972;7.856;2023-02-15T13:16:04;13.23;;;7.10;;
5555;SDS011;2801;50.972;7.856;2023-02-15T13:18:39;13.02;;;7.07;;
5555;SDS011;2801;50.972;7.856;2023-02-15T13:21:18;12.38;;;6.38;;
5555;SDS011;2801;50.972;7.856;2023-02-15T13:23:56;12.80;;;7.13;;
5555;SDS011;2801;50.972;7.856;2023-02-15T13:26:31;13.48;;;6.85;;
5555;SDS011;2801;50.972;7.856;2023-02-15T13:29:05;13.05;;;7.05;;
5555;SDS011;2801;50.972;7.856;2023-02-15T13:31:43;12.23;;;6.85;;
5555;SDS011;2801;50.972;7.856;2023-02-15T13:34:19;14.45;;;6.90;;
5555;SDS011;2801;50.972;7.856;2023-02-15T13:40:18;12.43;;;6.47;;
5555;SDS011;2801;50.972;7.856;2023-02-15T13:42:59;11.70;;;6.13;;
5555;SDS011;2801;50.972;7.856;2023-02-15T13:48:50;11.90;;;6.63;;
5555;SDS011;2801;50.972;7.856;2023-02-15T14:09:11;13.25;;;6.68;;
5555;SDS011;2801;50.972;7.856;2023-02-15T14:12:09;12.88;;;6.63;;
5555;SDS011;2801;50.972;7.856;2023-02-15T14:18:19;13.82;;;6.80;;
5555;SDS011;2801;50.972;7.856;2023-02-15T14:21:10;12.68;;;6.88;;
5555;SDS011;2801;50.972;7.856;2023-02-15T14:26:49;15.57;;;7.20;;
5555;SDS011;2801;50.972;7.856;2023-02-15T14:29:52;12.93;;;6.60;;
5555;SDS011;2801;50.972;7.856;2023-02-15T14:32:27;11.23;;;6.25;;
5555;SDS011;2801;50.972;7.856;2023-02-15T14:35:09;13.73;;;6.55;;
5555;SDS011;2801;50.972;7.856;2023-02-15T14:49:19;15.30;;;7.72;;
5555;SDS011;2801;50.972;7.856;2023-02-15T14:51:54;15.70;;;7.80;;
5555;SDS011;2801;50.972;7.856;2023-02-15T15:02:28;15.25;;;7.32;;
5555;SDS011;2801;50.972;7.856;2023-02-15T15:05:19;15.10;;;7.00;;
5555;SDS011;2801;50.972;7.856;2023-02-15T15:08:01;16.35;;;8.07;;
5555;SDS011;2801;50.972;7.856;2023-02-15T15:16:24;18.75;;;7.93;;
5555;SDS011;2801;50.972;7.856;2023-02-15T15:19:02;14.57;;;7.68;;
5555;SDS011;2801;50.972;7.856;2023-02-15T15:44:06;17.17;;;9.03;;
5555;SDS011;2801;50.972;7.856;2023-02-15T15:50:19;16.77;;;9.40;;
5555;SDS011;2801;50.972;7.856;2023-02-15T15:52:52;16.13;;;8.83;;
5555;SDS011;2801;50.972;7.856;2023-02-15T15:55:24;18.15;;;9.45;;
5555;SDS011;2801;50.972;7.856;2023-02-15T15:58:05;16.20;;;8.50;;
5555;SDS011;2801;50.972;7.856;2023-02-15T16:00:35;17.60;;;10.13;;
5555;SDS011;2801;50.972;7.856;2023-02-15T16:03:21;16.60;;;9.03;;
5555;SDS011;2801;50.972;7.856;2023-02-15T16:05:51;18.03;;;10.27;;
5555;SDS011;2801;50.972;7.856;2023-02-15T16:08:35;18.50;;;9.90;;
5555;SDS011;2801;50.972;7.856;2023-02-15T16:11:24;17.83;;;9.77;;
5555;SDS011;2801;50.972;7.856;2023-02-15T16:13:55;19.90;;;9.50;;
5555;SDS011;2801;50.972;7.856;2023-02-15T16:16:23;19.93;;;9.93;;
5555;SDS011;2801;50.972;7.856;2023-02-15T16:18:57;20.37;;;9.73;;
5555;SDS011;2801;50.972;7.856;2023-02-15T16:21:29;17.93;;;10.23;;
5555;SDS011;2801;50.972;7.856;2023-02-15T16:26:51;20.70;;;9.63;;
5555;SDS011;2801;50.972;7.856;2023-02-15T16:30:16;22.43;;;10.50;;
5555;SDS011;2801;50.972;7.856;2023-02-15T16:33:11;17.57;;;10.10;;
5555;SDS011;2801;50.972;7.856;2023-02-15T16:35:55;17.90;;;9.33;;
5555;SDS011;2801;50.972;7.856;2023-02-15T16:41:09;24.13;;;11.67;;
5555;SDS011;2801;50.972;7.856;2023-02-15T16:43:40;23.73;;;12.03;;
5555;SDS011;2801;50.972;7.856;2023-02-15T16:46:13;20.33;;;10.83;;
5555;SDS011;2801;50.972;7.856;2023-02-15T16:49:00;25.87;;;12.33;;
5555;SDS011;2801;50.972;7.856;2023-02-15T16:51:33;18.47;;;10.17;;
5555;SDS011;2801;50.972;7.856;2023-02-15T16:54:08;21.70;;;10.33;;
5555;SDS011;2801;50.972;7.856;2023-02-15T16:56:47;23.20;;;11.13;;
5555;SDS011;2801;50.972;7.856;2023-02-15T17:02:19;23.37;;;12.40;;
5555;SDS011;2801;50.972;7.856;2023-02-15T17:05:16;27.93;;;12.67;;
5555;SDS011;2801;50.972;7.856;2023-02-15T17:10:39;23.70;;;12.40;;
5555;SDS011;2801;50.972;7.856;2023-02-15T17:13:12;26.87;;;12.27;;
5555;SDS011;2801;50.972;7.856;2023-02-15T17:15:45;24.33;;;12.27;;
5555;SDS011;2801;50.972;7.856;2023-02-15T17:18:40;20.93;;;11.60;;
5555;SDS011;2801;50.972;7.856;2023-02-15T17:21:23;27.23;;;11.20;;
5555;SDS011;2801;50.972;7.856;2023-02-15T17:24:00;22.33;;;12.27;;
5555;SDS011;2801;50.972;7.856;2023-02-15T17:26:31;25.07;;;13.20;;
5555;SDS011;2801;50.972;7.856;2023-02-15T17:29:02;27.70;;;13.13;;
5555;SDS011;2801;50.972;7.856;2023-02-15T17:31:56;24.10;;;12.80;;
5555;SDS011;2801;50.972;7.856;2023-02-15T17:40:46;30.53;;;14.50;;
5555;SDS011;2801;50.972;7.856;2023-02-15T17:42:56;28.27;;;13.23;;
5555;SDS011;2801;50.972;7.856;2023-02-15T17:45:25;26.63;;;13.33;;
5555;SDS011;2801;50.972;7.856;2023-02-15T17:48:01;30.73;;;14.83;;
5555;SDS011;2801;50.972;7.856;2023-02-15T17:50:30;34.57;;;16.10;;
5555;SDS011;2801;50.972;7.856;2023-02-15T17:52:59;26.57;;;13.77;;
5555;SDS011;2801;50.972;7.856;2023-02-15T17:55:27;31.00;;;16.40;;
5555;SDS011;2801;50.972;7.856;2023-02-15T17:58:01;32.83;;;16.10;;
5555;SDS011;2801;50.972;7.856;2023-02-15T18:00:32;31.27;;;16.20;;
5555;SDS011;2801;50.972;7.856;2023-02-15T18:03:23;36.23;;;19.27;;
5555;SDS011;2801;50.972;7.856;2023-02-15T18:06:12;33.07;;;17.23;;
5555;SDS011;2801;50.972;7.856;2023-02-15T18:08:59;36.50;;;16.87;;
5555;SDS011;2801;50.972;7.856;2023-02-15T18:11:44;30.40;;;14.73;;
5555;SDS011;2801;50.972;7.856;2023-02-15T18:14:14;33.67;;;16.27;;
5555;SDS011;2801;50.972;7.856;2023-02-15T18:16:42;28.87;;;14.50;;
5555;SDS011;2801;50.972;7.856;2023-02-15T18:19:12;28.47;;;14.33;;
5555;SDS011;2801;50.972;7.856;2023-02-15T18:21:47;27.13;;;13.97;;
5555;SDS011;2801;50.972;7.856;2023-02-15T18:24:18;28.77;;;14.87;;
5555;SDS011;2801;50.972;7.856;2023-02-15T18:26:49;28.50;;;13.83;;
5555;SDS011;2801;50.972;7.856;2023-02-15T18:29:20;31.33;;;14.27;;
5555;SDS011;2801;50.972;7.856;2023-02-15T18:31:48;29.13;;;13.90;;
5555;SDS011;2801;50.972;7.856;2023-02-15T18:34:26;25.77;;;13.80;;
5555;SDS011;2801;50.972;7.856;2023-02-15T18:37:00;28.23;;;13.67;;
5555;SDS011;2801;50.972;7.856;2023-02-15T18:39:33;26.40;;;13.80;;
5555;SDS011;2801;50.972;7.856;2023-02-15T18:42:17;30.27;;;14.67;;
5555;SDS011;2801;50.972;7.856;2023-02-15T18:44:55;30.63;;;13.97;;
5555;SDS011;2801;50.972;7.856;2023-02-15T18:47:25;31.70;;;14.67;;
5555;SDS011;2801;50.972;7.856;2023-02-15T18:49:52;30.60;;;15.87;;
5555;SDS011;2801;50.972;7.856;2023-02-15T18:52:21;34.83;;;17.13;;
5555;SDS011;2801;50.972;7.856;2023-02-15T18:54:55;35.90;;;18.70;;
5555;SDS011;2801;50.972;7.856;2023-02-15T18:57:26;35.07;;;18.03;;
5555;SDS011;2801;50.972;7.856;2023-02-15T18:59:54;39.37;;;18.77;;
5555;SDS011;2801;50.972;7.856;2023-02-15T19:02:21;36.30;;;18.00;;
5555;SDS011;2801;50.972;7.856;2023-02-15T19:04:48;32.97;;;16.77;;
5555;SDS011;2801;50.972;7.856;2023-02-15T19:07:16;37.50;;;17.87;;
5555;SDS011;2801;50.972;7.856;2023-02-15T19:09:52;35.40;;;16.40;;
5555;SDS011;2801;50.972;7.856;2023-02-15T19:12:24;35.13;;;16.70;;
5555;SDS011;2801;50.972;7.856;2023-02-15T19:14:53;32.60;;;15.77;;
5555;SDS011;2801;50.972;7.856;2023-02-15T19:17:22;34.50;;;16.73;;
5555;SDS011;2801;50.972;7.856;2023-02-15T19:19:50;31.87;;;15.93;;